LIRA/CIA METAR and TAF weather

Enter ICAO airport designator
Station Type Date Time Source
LIRA METAR 2021/07/26 13:20 UTC NOAA

LIRA 261320Z 15009KT CAVOK 34/11 Q1015


Station Type Date Time Source
LIRA Decoded METAR 2021/07/26 13:20 UTC NOAA

Roma / Ciampino, Italy (LIRA) 41-47N 012-35E 105M
Jul 26, 2021 - 09:20 AM EDT / 2021.07.26 1320 UTC
Wind: from the SSE (150 degrees) at 10 MPH (9 KT):0
Visibility: greater than 7 mile(s):0
Temperature: 93 F (34 C)
Dew Point: 51 F (11 C)
Relative Humidity: 24%
Pressure (altimeter): 29.97 in. Hg (1015 hPa)
ob: LIRA 261320Z 15009KT CAVOK 34/11 Q1015
cycle: 13

Station Type Date Time Source
LIRA TAF 2021/07/26 12:21 UTC NOAA

TAF LIRA 261100Z 2612/2712 19012KT 9999 SCT040
TEMPO 2612/2615 16018G30KT

Example: see airport list